sensor_id;sensor_type;location;lat;lon;timestamp;pressure;altitude;pressure_sealevel;temperature;humidity
79703;BME280;69172;52.352;5.006;2024-02-21T00:02:18;102118.25;;;8.96;100.00
79703;BME280;69172;52.352;5.006;2024-02-21T00:04:43;102133.25;;;9.02;100.00
79703;BME280;69172;52.352;5.006;2024-02-21T00:07:09;102131.59;;;9.02;100.00
79703;BME280;69172;52.352;5.006;2024-02-21T00:09:34;102130.53;;;9.00;100.00
79703;BME280;69172;52.352;5.006;2024-02-21T00:12:00;102125.41;;;9.00;100.00
79703;BME280;69172;52.352;5.006;2024-02-21T00:14:26;102123.63;;;8.99;100.00
79703;BME280;69172;52.352;5.006;2024-02-21T00:16:52;102117.59;;;8.98;100.00
79703;BME280;69172;52.352;5.006;2024-02-21T00:19:17;102115.53;;;8.94;100.00
79703;BME280;69172;52.352;5.006;2024-02-21T00:21:42;102113.88;;;8.95;100.00
79703;BME280;69172;52.352;5.006;2024-02-21T00:24:08;102112.09;;;8.94;100.00
79703;BME280;69172;52.352;5.006;2024-02-21T00:26:33;102118.75;;;8.92;100.00
79703;BME280;69172;52.352;5.006;2024-02-21T00:28:58;102103.00;;;8.87;100.00
79703;BME280;69172;52.352;5.006;2024-02-21T00:31:23;102107.47;;;8.90;100.00
79703;BME280;69172;52.352;5.006;2024-02-21T00:33:50;102103.00;;;8.87;100.00
79703;BME280;69172;52.352;5.006;2024-02-21T00:36:16;102103.75;;;8.86;100.00
79703;BME280;69172;52.352;5.006;2024-02-21T00:38:42;102094.03;;;8.82;100.00
79703;BME280;69172;52.352;5.006;2024-02-21T00:41:08;102095.56;;;8.80;100.00
79703;BME280;69172;52.352;5.006;2024-02-21T00:43:36;102095.16;;;8.76;100.00
79703;BME280;69172;52.352;5.006;2024-02-21T00:46:23;102090.03;;;8.76;100.00
79703;BME280;69172;52.352;5.006;2024-02-21T00:48:51;102105.44;;;8.76;100.00
79703;BME280;69172;52.352;5.006;2024-02-21T00:54:57;102096.19;;;8.78;100.00
79703;BME280;69172;52.352;5.006;2024-02-21T00:57:23;102095.56;;;8.80;100.00
79703;BME280;69172;52.352;5.006;2024-02-21T00:59:49;102102.72;;;8.84;100.00
79703;BME280;69172;52.352;5.006;2024-02-21T01:02:20;102101.06;;;8.85;100.00
79703;BME280;69172;52.352;5.006;2024-02-21T01:04:46;102093.47;;;8.86;100.00
79703;BME280;69172;52.352;5.006;2024-02-21T01:07:11;102096.19;;;8.88;100.00
79703;BME280;69172;52.352;5.006;2024-02-21T01:09:37;102090.16;;;8.87;100.00
79703;BME280;69172;52.352;5.006;2024-02-21T01:12:02;102089.88;;;8.94;100.00
79703;BME280;69172;52.352;5.006;2024-02-21T01:14:28;102080.41;;;8.93;100.00
79703;BME280;69172;52.352;5.006;2024-02-21T01:16:53;102077.44;;;8.99;100.00
79703;BME280;69172;52.352;5.006;2024-02-21T01:19:19;102070.50;;;8.98;100.00
79703;BME280;69172;52.352;5.006;2024-02-21T01:21:44;102074.22;;;9.02;100.00
79703;BME280;69172;52.352;5.006;2024-02-21T01:24:09;102067.66;;;9.05;100.00
79703;BME280;69172;52.352;5.006;2024-02-21T01:26:36;102065.22;;;9.07;100.00
79703;BME280;69172;52.352;5.006;2024-02-21T01:29:02;102054.56;;;9.12;100.00
79703;BME280;69172;52.352;5.006;2024-02-21T01:31:28;102046.97;;;9.14;100.00
79703;BME280;69172;52.352;5.006;2024-02-21T01:33:53;102041.47;;;9.09;100.00
79703;BME280;69172;52.352;5.006;2024-02-21T01:36:18;102044.31;;;9.12;100.00
79703;BME280;69172;52.352;5.006;2024-02-21T01:38:45;102035.81;;;9.13;100.00
79703;BME280;69172;52.352;5.006;2024-02-21T01:41:10;102036.31;;;9.19;100.00
79703;BME280;69172;52.352;5.006;2024-02-21T01:43:36;102036.84;;;9.15;100.00
79703;BME280;69172;52.352;5.006;2024-02-21T01:46:01;102038.88;;;9.19;100.00
79703;BME280;69172;52.352;5.006;2024-02-21T01:48:27;102032.31;;;9.23;100.00
79703;BME280;69172;52.352;5.006;2024-02-21T01:50:54;102031.41;;;9.22;100.00
79703;BME280;69172;52.352;5.006;2024-02-21T01:53:30;102015.13;;;9.22;100.00
79703;BME280;69172;52.352;5.006;2024-02-21T01:55:56;102024.50;;;9.21;100.00
79703;BME280;69172;52.352;5.006;2024-02-21T01:58:23;102022.72;;;9.20;100.00
79703;BME280;69172;52.352;5.006;2024-02-21T02:00:49;102028.09;;;9.23;100.00
79703;BME280;69172;52.352;5.006;2024-02-21T02:03:16;102026.28;;;9.22;100.00
79703;BME280;69172;52.352;5.006;2024-02-21T02:05:46;102021.41;;;9.25;100.00
79703;BME280;69172;52.352;5.006;2024-02-21T02:08:16;102020.50;;;9.25;100.00
79703;BME280;69172;52.352;5.006;2024-02-21T02:10:42;102014.59;;;9.26;100.00
79703;BME280;69172;52.352;5.006;2024-02-21T02:13:08;102012.94;;;9.26;100.00
79703;BME280;69172;52.352;5.006;2024-02-21T02:15:42;102010.63;;;9.29;100.00
79703;BME280;69172;52.352;5.006;2024-02-21T02:18:09;102010.47;;;9.28;100.00
79703;BME280;69172;52.352;5.006;2024-02-21T02:20:36;102001.63;;;9.24;100.00
79703;BME280;69172;52.352;5.006;2024-02-21T02:25:34;102011.13;;;9.25;100.00
79703;BME280;69172;52.352;5.006;2024-02-21T02:27:59;102002.41;;;9.23;100.00
79703;BME280;69172;52.352;5.006;2024-02-21T02:30:25;101998.84;;;9.21;100.00
79703;BME280;69172;52.352;5.006;2024-02-21T02:32:50;101998.06;;;9.22;100.00
79703;BME280;69172;52.352;5.006;2024-02-21T02:35:15;101992.25;;;9.25;100.00
79703;BME280;69172;52.352;5.006;2024-02-21T02:37:49;101993.16;;;9.25;100.00
79703;BME280;69172;52.352;5.006;2024-02-21T02:40:15;101991.91;;;9.20;100.00
79703;BME280;69172;52.352;5.006;2024-02-21T02:42:40;101984.06;;;9.19;100.00
79703;BME280;69172;52.352;5.006;2024-02-21T02:45:06;101983.06;;;9.17;100.00
79703;BME280;69172;52.352;5.006;2024-02-21T02:47:31;101983.19;;;9.18;100.00
79703;BME280;69172;52.352;5.006;2024-02-21T02:49:57;101974.47;;;9.16;100.00
79703;BME280;69172;52.352;5.006;2024-02-21T02:52:22;101977.66;;;9.24;100.00
79703;BME280;69172;52.352;5.006;2024-02-21T02:54:47;101975.75;;;9.21;100.00
79703;BME280;69172;52.352;5.006;2024-02-21T02:57:17;101964.44;;;9.19;100.00
79703;BME280;69172;52.352;5.006;2024-02-21T02:59:47;101968.91;;;9.22;100.00
79703;BME280;69172;52.352;5.006;2024-02-21T03:02:13;101975.50;;;9.18;100.00
79703;BME280;69172;52.352;5.006;2024-02-21T03:04:39;101965.47;;;9.21;100.00
79703;BME280;69172;52.352;5.006;2024-02-21T03:07:05;101962.91;;;9.21;100.00
79703;BME280;69172;52.352;5.006;2024-02-21T03:09:31;101960.44;;;9.23;100.00
79703;BME280;69172;52.352;5.006;2024-02-21T03:11:56;101957.53;;;9.18;100.00
79703;BME280;69172;52.352;5.006;2024-02-21T03:14:27;101946.47;;;9.19;100.00
79703;BME280;69172;52.352;5.006;2024-02-21T03:16:52;101930.16;;;9.19;100.00
79703;BME280;69172;52.352;5.006;2024-02-21T03:19:18;101939.00;;;9.22;100.00
79703;BME280;69172;52.352;5.006;2024-02-21T03:21:43;101926.44;;;9.25;100.00
79703;BME280;69172;52.352;5.006;2024-02-21T03:24:09;101934.03;;;9.24;100.00
79703;BME280;69172;52.352;5.006;2024-02-21T03:26:34;101920.28;;;9.23;100.00
79703;BME280;69172;52.352;5.006;2024-02-21T03:29:00;101918.47;;;9.22;100.00
79703;BME280;69172;52.352;5.006;2024-02-21T03:31:26;101913.09;;;9.19;100.00
79703;BME280;69172;52.352;5.006;2024-02-21T03:33:51;101917.25;;;9.17;100.00
79703;BME280;69172;52.352;5.006;2024-02-21T03:36:16;101913.09;;;9.19;100.00
79703;BME280;69172;52.352;5.006;2024-02-21T03:38:42;101899.28;;;9.17;100.00
79703;BME280;69172;52.352;5.006;2024-02-21T03:41:07;101898.25;;;9.15;100.00
79703;BME280;69172;52.352;5.006;2024-02-21T03:43:32;101910.31;;;9.16;100.00
79703;BME280;69172;52.352;5.006;2024-02-21T03:45:58;101902.50;;;9.15;100.00
79703;BME280;69172;52.352;5.006;2024-02-21T03:48:24;101908.53;;;9.15;100.00
79703;BME280;69172;52.352;5.006;2024-02-21T03:50:51;101895.81;;;9.17;100.00
79703;BME280;69172;52.352;5.006;2024-02-21T03:53:16;101884.53;;;9.15;100.00
79703;BME280;69172;52.352;5.006;2024-02-21T03:55:42;101888.25;;;9.18;100.00
79703;BME280;69172;52.352;5.006;2024-02-21T03:58:07;101886.09;;;9.13;100.00
79703;BME280;69172;52.352;5.006;2024-02-21T04:00:34;101886.44;;;9.17;100.00
79703;BME280;69172;52.352;5.006;2024-02-21T04:03:00;101886.19;;;9.14;100.00
79703;BME280;69172;52.352;5.006;2024-02-21T04:05:27;101894.56;;;9.12;100.00
79703;BME280;69172;52.352;5.006;2024-02-21T04:07:53;101877.50;;;9.12;100.00
79703;BME280;69172;52.352;5.006;2024-02-21T04:10:18;101876.34;;;9.09;100.00
79703;BME280;69172;52.352;5.006;2024-02-21T04:12:45;101874.69;;;9.09;100.00
79703;BME280;69172;52.352;5.006;2024-02-21T04:15:10;101873.25;;;9.13;100.00
79703;BME280;69172;52.352;5.006;2024-02-21T04:17:36;101873.13;;;9.11;100.00
79703;BME280;69172;52.352;5.006;2024-02-21T04:20:04;101874.94;;;9.12;100.00
79703;BME280;69172;52.352;5.006;2024-02-21T04:22:32;101867.34;;;9.14;100.00
79703;BME280;69172;52.352;5.006;2024-02-21T04:25:00;101876.34;;;9.09;100.00
79703;BME280;69172;52.352;5.006;2024-02-21T04:27:26;101887.63;;;9.11;100.00
79703;BME280;69172;52.352;5.006;2024-02-21T04:29:53;101873.94;;;9.10;100.00
79703;BME280;69172;52.352;5.006;2024-02-21T04:32:18;101879.81;;;9.09;100.00
79703;BME280;69172;52.352;5.006;2024-02-21T04:34:44;101872.88;;;9.08;100.00
79703;BME280;69172;52.352;5.006;2024-02-21T04:37:10;101867.41;;;9.04;100.00
79703;BME280;69172;52.352;5.006;2024-02-21T04:39:37;101854.69;;;9.05;100.00
79703;BME280;69172;52.352;5.006;2024-02-21T04:42:03;101855.34;;;9.03;100.00
79703;BME280;69172;52.352;5.006;2024-02-21T04:44:29;101860.03;;;8.96;100.00
79703;BME280;69172;52.352;5.006;2024-02-21T04:46:54;101857.81;;;9.01;100.00
79703;BME280;69172;52.352;5.006;2024-02-21T04:49:19;101856.00;;;9.00;100.00
79703;BME280;69172;52.352;5.006;2024-02-21T04:52:12;101848.84;;;8.96;100.00
79703;BME280;69172;52.352;5.006;2024-02-21T04:54:37;101842.94;;;8.97;100.00
79703;BME280;69172;52.352;5.006;2024-02-21T04:57:09;101849.63;;;8.95;100.00
79703;BME280;69172;52.352;5.006;2024-02-21T05:02:56;101839.34;;;8.95;100.00
79703;BME280;69172;52.352;5.006;2024-02-21T05:05:21;101850.53;;;8.95;100.00
79703;BME280;69172;52.352;5.006;2024-02-21T05:07:46;101823.88;;;8.93;100.00
79703;BME280;69172;52.352;5.006;2024-02-21T05:10:12;101825.63;;;8.94;100.00
79703;BME280;69172;52.352;5.006;2024-02-21T05:12:37;101820.63;;;8.96;100.00
79703;BME280;69172;52.352;5.006;2024-02-21T05:15:03;101821.16;;;8.92;100.00
79703;BME280;69172;52.352;5.006;2024-02-21T05:17:29;101824.63;;;8.92;100.00
79703;BME280;69172;52.352;5.006;2024-02-21T05:19:54;101805.00;;;8.93;100.00
79703;BME280;69172;52.352;5.006;2024-02-21T05:22:19;101804.34;;;8.95;100.00
79703;BME280;69172;52.352;5.006;2024-02-21T05:24:45;101798.06;;;8.92;100.00
79703;BME280;69172;52.352;5.006;2024-02-21T05:27:10;101794.84;;;8.94;100.00
79703;BME280;69172;52.352;5.006;2024-02-21T05:29:36;101785.25;;;8.92;100.00
79703;BME280;69172;52.352;5.006;2024-02-21T05:32:01;101787.06;;;8.93;100.00
79703;BME280;69172;52.352;5.006;2024-02-21T05:34:27;101783.75;;;9.06;100.00
79703;BME280;69172;52.352;5.006;2024-02-21T05:36:53;101776.47;;;9.00;100.00
79703;BME280;69172;52.352;5.006;2024-02-21T05:39:18;101771.91;;;8.96;100.00
79703;BME280;69172;52.352;5.006;2024-02-21T05:41:44;101765.97;;;8.97;100.00
79703;BME280;69172;52.352;5.006;2024-02-21T05:44:10;101763.31;;;8.95;100.00
79703;BME280;69172;52.352;5.006;2024-02-21T05:46:35;101756.94;;;8.90;100.00
79703;BME280;69172;52.352;5.006;2024-02-21T05:49:01;101748.75;;;8.84;100.00
79703;BME280;69172;52.352;5.006;2024-02-21T05:51:26;101752.94;;;8.94;100.00
79703;BME280;69172;52.352;5.006;2024-02-21T05:53:51;101736.91;;;8.75;100.00
79703;BME280;69172;52.352;5.006;2024-02-21T05:56:17;101740.47;;;8.77;100.00
79703;BME280;69172;52.352;5.006;2024-02-21T05:58:43;101739.25;;;8.72;100.00
79703;BME280;69172;52.352;5.006;2024-02-21T06:01:09;101749.50;;;8.72;100.00
79703;BME280;69172;52.352;5.006;2024-02-21T06:03:35;101732.31;;;8.71;100.00
79703;BME280;69172;52.352;5.006;2024-02-21T06:06:01;101738.09;;;8.68;100.00
79703;BME280;69172;52.352;5.006;2024-02-21T06:08:27;101728.50;;;8.66;100.00
79703;BME280;69172;52.352;5.006;2024-02-21T06:10:53;101728.59;;;8.67;100.00
79703;BME280;69172;52.352;5.006;2024-02-21T06:13:26;101726.41;;;8.72;100.00
79703;BME280;69172;52.352;5.006;2024-02-21T06:15:52;101725.94;;;8.66;100.00
79703;BME280;69172;52.352;5.006;2024-02-21T06:18:18;101734.63;;;8.68;100.00
79703;BME280;69172;52.352;5.006;2024-02-21T06:20:44;101727.25;;;8.61;100.00
79703;BME280;69172;52.352;5.006;2024-02-21T06:23:12;101736.19;;;8.66;100.00
79703;BME280;69172;52.352;5.006;2024-02-21T06:25:38;101738.53;;;8.63;100.00
79703;BME280;69172;52.352;5.006;2024-02-21T06:28:05;101751.03;;;8.70;100.00
79703;BME280;69172;52.352;5.006;2024-02-21T06:30:31;101756.81;;;8.67;100.00
79703;BME280;69172;52.352;5.006;2024-02-21T06:32:56;101757.72;;;8.68;100.00
79703;BME280;69172;52.352;5.006;2024-02-21T06:35:22;101753.25;;;8.65;100.00
79703;BME280;69172;52.352;5.006;2024-02-21T06:37:49;101754.25;;;8.67;100.00
79703;BME280;69172;52.352;5.006;2024-02-21T06:40:17;101755.94;;;8.67;100.00
79703;BME280;69172;52.352;5.006;2024-02-21T06:42:42;101743.13;;;8.67;100.00
79703;BME280;69172;52.352;5.006;2024-02-21T06:45:08;101736.44;;;8.69;100.00
79703;BME280;69172;52.352;5.006;2024-02-21T06:47:33;101744.47;;;8.73;100.00
79703;BME280;69172;52.352;5.006;2024-02-21T06:49:59;101738.84;;;8.67;100.00
79703;BME280;69172;52.352;5.006;2024-02-21T06:52:24;101733.22;;;8.71;100.00
79703;BME280;69172;52.352;5.006;2024-02-21T06:54:50;101722.59;;;8.67;100.00
79703;BME280;69172;52.352;5.006;2024-02-21T06:57:16;101725.38;;;8.70;100.00
79703;BME280;69172;52.352;5.006;2024-02-21T06:59:42;101726.28;;;8.70;100.00
79703;BME280;69172;52.352;5.006;2024-02-21T07:02:07;101725.03;;;8.65;100.00
79703;BME280;69172;52.352;5.006;2024-02-21T07:04:33;101721.06;;;8.69;100.00
79703;BME280;69172;52.352;5.006;2024-02-21T07:07:03;101722.19;;;8.72;100.00
79703;BME280;69172;52.352;5.006;2024-02-21T07:09:29;101714.84;;;8.77;100.00
79703;BME280;69172;52.352;5.006;2024-02-21T07:11:59;101707.31;;;8.68;100.00
79703;BME280;69172;52.352;5.006;2024-02-21T07:14:24;101710.78;;;8.69;100.00
79703;BME280;69172;52.352;5.006;2024-02-21T07:16:51;101707.00;;;8.75;100.00
79703;BME280;69172;52.352;5.006;2024-02-21T07:19:17;101708.91;;;8.78;100.00
79703;BME280;69172;52.352;5.006;2024-02-21T07:21:42;101700.09;;;8.74;100.00
79703;BME280;69172;52.352;5.006;2024-02-21T07:24:08;101700.09;;;8.74;100.00
79703;BME280;69172;52.352;5.006;2024-02-21T07:26:33;101701.69;;;8.84;100.00
79703;BME280;69172;52.352;5.006;2024-02-21T07:28:59;101687.53;;;8.77;100.00
79703;BME280;69172;52.352;5.006;2024-02-21T07:31:24;101682.50;;;8.79;100.00
79703;BME280;69172;52.352;5.006;2024-02-21T07:33:50;101680.94;;;8.81;100.00
79703;BME280;69172;52.352;5.006;2024-02-21T07:36:15;101672.38;;;8.80;100.00
79703;BME280;69172;52.352;5.006;2024-02-21T07:38:42;101658.28;;;8.75;100.00
79703;BME280;69172;52.352;5.006;2024-02-21T07:41:07;101664.22;;;8.74;100.00
79703;BME280;69172;52.352;5.006;2024-02-21T07:43:33;101650.91;;;8.68;100.00
79703;BME280;69172;52.352;5.006;2024-02-21T07:45:59;101651.25;;;8.73;100.00
79703;BME280;69172;52.352;5.006;2024-02-21T07:48:24;101652.06;;;8.83;100.00
79703;BME280;69172;52.352;5.006;2024-02-21T07:50:51;101656.75;;;8.89;100.00
79703;BME280;69172;52.352;5.006;2024-02-21T07:53:17;101650.75;;;8.88;100.00
79703;BME280;69172;52.352;5.006;2024-02-21T07:55:42;101652.28;;;8.86;100.00
79703;BME280;69172;52.352;5.006;2024-02-21T07:58:07;101653.84;;;8.84;100.00
79703;BME280;69172;52.352;5.006;2024-02-21T08:00:34;101658.31;;;8.87;100.00
79703;BME280;69172;52.352;5.006;2024-02-21T08:02:59;101650.94;;;8.91;100.00
79703;BME280;69172;52.352;5.006;2024-02-21T08:05:25;101637.50;;;8.94;100.00
79703;BME280;69172;52.352;5.006;2024-02-21T08:07:50;101638.47;;;8.84;100.00
79703;BME280;69172;52.352;5.006;2024-02-21T08:10:18;101633.47;;;8.97;100.00
79703;BME280;69172;52.352;5.006;2024-02-21T08:12:43;101635.34;;;9.00;100.00
79703;BME280;69172;52.352;5.006;2024-02-21T08:15:09;101636.69;;;8.95;100.00
79703;BME280;69172;52.352;5.006;2024-02-21T08:17:37;101644.97;;;8.91;100.00
79703;BME280;69172;52.352;5.006;2024-02-21T08:20:04;101636.56;;;8.82;100.00
79703;BME280;69172;52.352;5.006;2024-02-21T08:22:30;101609.03;;;8.79;100.00
79703;BME280;69172;52.352;5.006;2024-02-21T08:25:08;101618.28;;;8.77;100.00
79703;BME280;69172;52.352;5.006;2024-02-21T08:27:33;101621.03;;;8.69;100.00
79703;BME280;69172;52.352;5.006;2024-02-21T08:30:00;101617.91;;;8.61;100.00
79703;BME280;69172;52.352;5.006;2024-02-21T08:32:39;101605.75;;;8.59;100.00
79703;BME280;69172;52.352;5.006;2024-02-21T08:35:05;101607.00;;;8.64;100.00
79703;BME280;69172;52.352;5.006;2024-02-21T08:37:32;101598.94;;;8.59;100.00
79703;BME280;69172;52.352;5.006;2024-02-21T08:39:58;101597.50;;;8.63;100.00
79703;BME280;69172;52.352;5.006;2024-02-21T08:42:30;101584.81;;;8.76;100.00
79703;BME280;69172;52.352;5.006;2024-02-21T08:44:56;101587.81;;;8.70;100.00
79703;BME280;69172;52.352;5.006;2024-02-21T08:47:21;101583.34;;;8.68;100.00
79703;BME280;69172;52.352;5.006;2024-02-21T08:49:47;101586.72;;;8.67;100.00
79703;BME280;69172;52.352;5.006;2024-02-21T08:52:13;101581.34;;;8.75;100.00
79703;BME280;69172;52.352;5.006;2024-02-21T08:54:38;101577.91;;;8.75;100.00
79703;BME280;69172;52.352;5.006;2024-02-21T08:57:05;101578.34;;;8.81;100.00
79703;BME280;69172;52.352;5.006;2024-02-21T08:59:30;101578.72;;;8.85;100.00
79703;BME280;69172;52.352;5.006;2024-02-21T09:01:57;101579.72;;;8.99;100.00
79703;BME280;69172;52.352;5.006;2024-02-21T09:04:23;101563.88;;;8.93;100.00
79703;BME280;69172;52.352;5.006;2024-02-21T09:06:48;101564.75;;;9.05;100.00
79703;BME280;69172;52.352;5.006;2024-02-21T09:09:14;101565.66;;;8.94;100.00
79703;BME280;69172;52.352;5.006;2024-02-21T09:11:39;101557.94;;;9.06;100.00
79703;BME280;69172;52.352;5.006;2024-02-21T09:14:06;101548.34;;;9.03;100.00
79703;BME280;69172;52.352;5.006;2024-02-21T09:16:32;101539.91;;;9.16;100.00
79703;BME280;69172;52.352;5.006;2024-02-21T09:18:58;101539.78;;;9.14;100.00
79703;BME280;69172;52.352;5.006;2024-02-21T09:21:23;101529.72;;;9.29;100.00
79703;BME280;69172;52.352;5.006;2024-02-21T09:23:50;101525.00;;;9.35;100.00
79703;BME280;69172;52.352;5.006;2024-02-21T09:26:15;101524.75;;;9.43;100.00
79703;BME280;69172;52.352;5.006;2024-02-21T09:28:43;101521.44;;;9.44;100.00
79703;BME280;69172;52.352;5.006;2024-02-21T09:31:09;101517.50;;;9.49;100.00
79703;BME280;69172;52.352;5.006;2024-02-21T09:33:34;101514.03;;;9.49;100.00
79703;BME280;69172;52.352;5.006;2024-02-21T09:36:01;101505.63;;;9.63;100.00
79703;BME280;69172;52.352;5.006;2024-02-21T09:38:26;101509.31;;;9.67;100.00
79703;BME280;69172;52.352;5.006;2024-02-21T09:43:34;101472.72;;;9.82;100.00
79703;BME280;69172;52.352;5.006;2024-02-21T09:46:00;101471.25;;;9.86;100.00
79703;BME280;69172;52.352;5.006;2024-02-21T09:48:56;101466.84;;;9.96;100.00
79703;BME280;69172;52.352;5.006;2024-02-21T09:51:24;101464.16;;;9.95;100.00
79703;BME280;69172;52.352;5.006;2024-02-21T09:53:53;101451.22;;;9.93;100.00
79703;BME280;69172;52.352;5.006;2024-02-21T09:56:19;101434.69;;;9.90;100.00
79703;BME280;69172;52.352;5.006;2024-02-21T09:58:46;101440.94;;;9.93;100.00
79703;BME280;69172;52.352;5.006;2024-02-21T10:01:12;101431.91;;;9.87;100.00
79703;BME280;69172;52.352;5.006;2024-02-21T10:03:37;101440.53;;;9.87;100.00
79703;BME280;69172;52.352;5.006;2024-02-21T10:06:03;101425.72;;;9.83;100.00
79703;BME280;69172;52.352;5.006;2024-02-21T10:08:29;101416.38;;;9.72;100.00
79703;BME280;69172;52.352;5.006;2024-02-21T10:10:54;101417.28;;;9.73;100.00
79703;BME280;69172;52.352;5.006;2024-02-21T10:13:28;101422.44;;;9.86;100.00
79703;BME280;69172;52.352;5.006;2024-02-21T10:16:04;101414.63;;;9.84;100.00
79703;BME280;69172;52.352;5.006;2024-02-21T10:18:31;101401.50;;;9.93;100.00
79703;BME280;69172;52.352;5.006;2024-02-21T10:21:01;101387.19;;;9.83;100.00
79703;BME280;69172;52.352;5.006;2024-02-21T10:23:26;101393.22;;;9.97;100.00
79703;BME280;69172;52.352;5.006;2024-02-21T10:25:51;101383.16;;;10.00;100.00
79703;BME280;69172;52.352;5.006;2024-02-21T10:28:18;101374.44;;;9.98;100.00
79703;BME280;69172;52.352;5.006;2024-02-21T10:30:51;101368.03;;;10.04;100.00
79703;BME280;69172;52.352;5.006;2024-02-21T10:33:17;101372.88;;;10.00;100.00
79703;BME280;69172;52.352;5.006;2024-02-21T10:35:46;101366.03;;;10.00;100.00
79703;BME280;69172;52.352;5.006;2024-02-21T10:38:12;101359.63;;;10.07;100.00
79703;BME280;69172;52.352;5.006;2024-02-21T10:40:38;101367.31;;;10.19;100.00
79703;BME280;69172;52.352;5.006;2024-02-21T10:43:05;101365.03;;;10.23;100.00
79703;BME280;69172;52.352;5.006;2024-02-21T10:45:36;101335.97;;;10.24;100.00
79703;BME280;69172;52.352;5.006;2024-02-21T10:48:14;101334.28;;;10.38;100.00
79703;BME280;69172;52.352;5.006;2024-02-21T10:54:11;101325.28;;;10.31;100.00
79703;BME280;69172;52.352;5.006;2024-02-21T10:56:39;101320.63;;;10.26;100.00
79703;BME280;69172;52.352;5.006;2024-02-21T10:59:07;101328.34;;;10.26;100.00
79703;BME280;69172;52.352;5.006;2024-02-21T11:01:33;101321.41;;;10.25;100.00
79703;BME280;69172;52.352;5.006;2024-02-21T11:04:08;101330.53;;;10.33;100.00
79703;BME280;69172;52.352;5.006;2024-02-21T11:06:36;101334.47;;;10.14;100.00
79703;BME280;69172;52.352;5.006;2024-02-21T11:09:06;101342.34;;;10.04;100.00
79703;BME280;69172;52.352;5.006;2024-02-21T11:11:39;101340.13;;;9.97;100.00
79703;BME280;69172;52.352;5.006;2024-02-21T11:14:10;101331.25;;;9.92;100.00
79703;BME280;69172;52.352;5.006;2024-02-21T11:16:40;101338.44;;;9.72;100.00
79703;BME280;69172;52.352;5.006;2024-02-21T11:19:29;101324.81;;;9.73;100.00
79703;BME280;69172;52.352;5.006;2024-02-21T11:21:57;101304.16;;;9.71;100.00
79703;BME280;69172;52.352;5.006;2024-02-21T11:24:29;101295.97;;;9.77;100.00
79703;BME280;69172;52.352;5.006;2024-02-21T11:29:58;101299.22;;;9.87;100.00
79703;BME280;69172;52.352;5.006;2024-02-21T11:32:25;101279.97;;;9.94;100.00
79703;BME280;69172;52.352;5.006;2024-02-21T11:34:58;101272.47;;;9.97;100.00
79703;BME280;69172;52.352;5.006;2024-02-21T11:37:28;101266.53;;;9.98;100.00
79703;BME280;69172;52.352;5.006;2024-02-21T11:39:57;101260.19;;;10.06;100.00
79703;BME280;69172;52.352;5.006;2024-02-21T11:42:25;101259.94;;;10.14;100.00
79703;BME280;69172;52.352;5.006;2024-02-21T11:44:50;101243.38;;;10.11;100.00
79703;BME280;69172;52.352;5.006;2024-02-21T11:47:18;101226.03;;;10.20;100.00
79703;BME280;69172;52.352;5.006;2024-02-21T11:49:47;101213.53;;;10.39;100.00
79703;BME280;69172;52.352;5.006;2024-02-21T11:52:16;101204.09;;;10.53;100.00
79703;BME280;69172;52.352;5.006;2024-02-21T11:54:45;101198.09;;;10.67;100.00
79703;BME280;69172;52.352;5.006;2024-02-21T11:57:11;101180.81;;;10.79;100.00
79703;BME280;69172;52.352;5.006;2024-02-21T11:59:44;101168.19;;;10.97;100.00
79703;BME280;69172;52.352;5.006;2024-02-21T12:02:09;101154.84;;;11.04;100.00
79703;BME280;69172;52.352;5.006;2024-02-21T12:04:36;101154.25;;;11.08;100.00
79703;BME280;69172;52.352;5.006;2024-02-21T12:07:04;101149.53;;;11.15;100.00
79703;BME280;69172;52.352;5.006;2024-02-21T12:09:30;101129.84;;;11.30;100.00
79703;BME280;69172;52.352;5.006;2024-02-21T12:12:19;101134.34;;;11.34;100.00
79703;BME280;69172;52.352;5.006;2024-02-21T12:14:44;101130.00;;;11.04;100.00
79703;BME280;69172;52.352;5.006;2024-02-21T12:17:11;101124.97;;;10.91;100.00
79703;BME280;69172;52.352;5.006;2024-02-21T12:19:37;101115.13;;;10.84;100.00
79703;BME280;69172;52.352;5.006;2024-02-21T12:22:03;101088.59;;;10.70;100.00
79703;BME280;69172;52.352;5.006;2024-02-21T12:24:31;101095.06;;;10.79;100.00
79703;BME280;69172;52.352;5.006;2024-02-21T12:26:57;101098.78;;;10.84;100.00
79703;BME280;69172;52.352;5.006;2024-02-21T12:29:24;101088.94;;;10.62;100.00
79703;BME280;69172;52.352;5.006;2024-02-21T12:31:54;101084.91;;;10.52;100.00
79703;BME280;69172;52.352;5.006;2024-02-21T12:34:20;101082.09;;;10.62;100.00
79703;BME280;69172;52.352;5.006;2024-02-21T12:36:47;101061.25;;;10.72;100.00
79703;BME280;69172;52.352;5.006;2024-02-21T12:39:13;101072.88;;;10.51;100.00
79703;BME280;69172;52.352;5.006;2024-02-21T12:41:38;101056.81;;;10.41;100.00
79703;BME280;69172;52.352;5.006;2024-02-21T12:44:05;101040.03;;;10.47;100.00
79703;BME280;69172;52.352;5.006;2024-02-21T12:46:35;101032.69;;;10.53;100.00
79703;BME280;69172;52.352;5.006;2024-02-21T12:49:04;101021.56;;;10.25;100.00
79703;BME280;69172;52.352;5.006;2024-02-21T12:51:31;101014.84;;;10.27;100.00
79703;BME280;69172;52.352;5.006;2024-02-21T12:53:57;101001.91;;;10.40;100.00
79703;BME280;69172;52.352;5.006;2024-02-21T12:56:23;101006.34;;;10.43;100.00
79703;BME280;69172;52.352;5.006;2024-02-21T12:58:50;100991.00;;;10.30;100.00
79703;BME280;69172;52.352;5.006;2024-02-21T13:01:16;101001.56;;;10.34;100.00
79703;BME280;69172;52.352;5.006;2024-02-21T13:03:43;100991.88;;;10.30;100.00
79703;BME280;69172;52.352;5.006;2024-02-21T13:06:08;100982.03;;;10.23;100.00